sensor_id;sensor_type;location;lat;lon;timestamp;temperature;humidity
16625;DHT22;8426;48.496;9.098;2023-04-15T00:01:46;1.80;99.90
16625;DHT22;8426;48.496;9.098;2023-04-15T00:06:53;1.70;99.90
16625;DHT22;8426;48.496;9.098;2023-04-15T00:11:56;1.80;99.90
16625;DHT22;8426;48.496;9.098;2023-04-15T00:17:00;1.80;99.90
16625;DHT22;8426;48.496;9.098;2023-04-15T00:22:07;1.70;99.90
16625;DHT22;8426;48.496;9.098;2023-04-15T00:27:10;1.50;99.90
16625;DHT22;8426;48.496;9.098;2023-04-15T00:32:14;1.30;99.90
16625;DHT22;8426;48.496;9.098;2023-04-15T00:37:18;1.30;99.90
16625;DHT22;8426;48.496;9.098;2023-04-15T00:42:22;1.30;99.90
16625;DHT22;8426;48.496;9.098;2023-04-15T00:47:28;1.30;99.90
16625;DHT22;8426;48.496;9.098;2023-04-15T00:52:33;1.30;99.90
16625;DHT22;8426;48.496;9.098;2023-04-15T00:57:38;1.30;99.90
16625;DHT22;8426;48.496;9.098;2023-04-15T01:02:41;1.20;99.90
16625;DHT22;8426;48.496;9.098;2023-04-15T01:07:47;1.20;99.90
16625;DHT22;8426;48.496;9.098;2023-04-15T01:12:51;1.10;99.90
16625;DHT22;8426;48.496;9.098;2023-04-15T01:17:54;1.00;99.90
16625;DHT22;8426;48.496;9.098;2023-04-15T01:23:01;0.80;99.90
16625;DHT22;8426;48.496;9.098;2023-04-15T01:28:06;0.80;99.90
16625;DHT22;8426;48.496;9.098;2023-04-15T01:33:10;0.60;99.90
16625;DHT22;8426;48.496;9.098;2023-04-15T01:38:14;0.60;99.90
16625;DHT22;8426;48.496;9.098;2023-04-15T01:43:19;0.70;99.90
16625;DHT22;8426;48.496;9.098;2023-04-15T01:48:23;0.70;99.90
16625;DHT22;8426;48.496;9.098;2023-04-15T01:53:27;0.60;99.90
16625;DHT22;8426;48.496;9.098;2023-04-15T01:58:32;0.60;99.90
16625;DHT22;8426;48.496;9.098;2023-04-15T02:03:36;0.60;99.90
16625;DHT22;8426;48.496;9.098;2023-04-15T02:08:40;0.50;99.90
16625;DHT22;8426;48.496;9.098;2023-04-15T02:13:45;0.40;99.90
16625;DHT22;8426;48.496;9.098;2023-04-15T02:18:49;0.40;99.90
16625;DHT22;8426;48.496;9.098;2023-04-15T02:23:53;0.40;99.90
16625;DHT22;8426;48.496;9.098;2023-04-15T02:28:58;0.20;99.90
16625;DHT22;8426;48.496;9.098;2023-04-15T02:34:08;0.10;99.90
16625;DHT22;8426;48.496;9.098;2023-04-15T02:39:11;0.00;99.90
16625;DHT22;8426;48.496;9.098;2023-04-15T02:44:19;0.00;99.90
16625;DHT22;8426;48.496;9.098;2023-04-15T02:49:24;0.00;99.90
16625;DHT22;8426;48.496;9.098;2023-04-15T02:54:30;0.00;99.90
16625;DHT22;8426;48.496;9.098;2023-04-15T02:59:36;0.00;99.90
16625;DHT22;8426;48.496;9.098;2023-04-15T03:04:41;0.00;99.90
16625;DHT22;8426;48.496;9.098;2023-04-15T03:09:45;-0.10;99.90
16625;DHT22;8426;48.496;9.098;2023-04-15T03:14:50;-0.10;99.90
16625;DHT22;8426;48.496;9.098;2023-04-15T03:19:54;-0.20;99.90
16625;DHT22;8426;48.496;9.098;2023-04-15T03:25:00;-0.20;99.90
16625;DHT22;8426;48.496;9.098;2023-04-15T03:30:06;-0.30;99.90
16625;DHT22;8426;48.496;9.098;2023-04-15T03:35:10;-0.40;99.90
16625;DHT22;8426;48.496;9.098;2023-04-15T03:40:13;-0.40;99.90
16625;DHT22;8426;48.496;9.098;2023-04-15T03:45:18;-0.50;99.90
16625;DHT22;8426;48.496;9.098;2023-04-15T03:50:21;-0.50;99.90
16625;DHT22;8426;48.496;9.098;2023-04-15T03:55:25;-0.60;99.90
16625;DHT22;8426;48.496;9.098;2023-04-15T04:00:30;-0.60;99.90
16625;DHT22;8426;48.496;9.098;2023-04-15T04:05:34;-0.60;99.90
16625;DHT22;8426;48.496;9.098;2023-04-15T04:10:41;-0.70;99.90
16625;DHT22;8426;48.496;9.098;2023-04-15T04:15:47;-0.70;99.90
16625;DHT22;8426;48.496;9.098;2023-04-15T04:20:55;-0.70;99.90
16625;DHT22;8426;48.496;9.098;2023-04-15T04:25:58;-0.80;99.90
16625;DHT22;8426;48.496;9.098;2023-04-15T04:31:05;-0.80;99.90
16625;DHT22;8426;48.496;9.098;2023-04-15T04:36:09;-0.80;99.90
16625;DHT22;8426;48.496;9.098;2023-04-15T04:41:14;-0.80;99.90
16625;DHT22;8426;48.496;9.098;2023-04-15T04:46:20;-0.70;99.90
16625;DHT22;8426;48.496;9.098;2023-04-15T04:51:29;-0.70;99.90
16625;DHT22;8426;48.496;9.098;2023-04-15T04:56:35;-0.60;99.90
16625;DHT22;8426;48.496;9.098;2023-04-15T05:01:42;-0.50;99.90
16625;DHT22;8426;48.496;9.098;2023-04-15T05:06:46;-0.40;99.90
16625;DHT22;8426;48.496;9.098;2023-04-15T05:11:52;-0.40;99.90
16625;DHT22;8426;48.496;9.098;2023-04-15T05:16:57;-0.30;99.90
16625;DHT22;8426;48.496;9.098;2023-04-15T05:22:02;-0.10;99.90
16625;DHT22;8426;48.496;9.098;2023-04-15T05:27:06;0.10;99.90
16625;DHT22;8426;48.496;9.098;2023-04-15T05:32:13;0.30;99.90
16625;DHT22;8426;48.496;9.098;2023-04-15T05:37:16;0.40;99.90
16625;DHT22;8426;48.496;9.098;2023-04-15T05:42:23;0.60;99.90
16625;DHT22;8426;48.496;9.098;2023-04-15T05:47:29;1.00;99.90
16625;DHT22;8426;48.496;9.098;2023-04-15T05:52:32;1.30;99.90
16625;DHT22;8426;48.496;9.098;2023-04-15T05:57:36;1.70;99.90
16625;DHT22;8426;48.496;9.098;2023-04-15T06:02:42;2.00;99.90
16625;DHT22;8426;48.496;9.098;2023-04-15T06:07:46;2.20;99.90
16625;DHT22;8426;48.496;9.098;2023-04-15T06:12:52;2.40;99.90
16625;DHT22;8426;48.496;9.098;2023-04-15T06:17:57;2.60;99.90
16625;DHT22;8426;48.496;9.098;2023-04-15T06:23:01;2.90;99.90
16625;DHT22;8426;48.496;9.098;2023-04-15T06:28:05;3.10;99.90
16625;DHT22;8426;48.496;9.098;2023-04-15T06:33:10;3.40;99.90
16625;DHT22;8426;48.496;9.098;2023-04-15T06:38:14;3.90;99.90
16625;DHT22;8426;48.496;9.098;2023-04-15T06:43:18;4.60;99.90
16625;DHT22;8426;48.496;9.098;2023-04-15T06:48:23;5.80;99.90
16625;DHT22;8426;48.496;9.098;2023-04-15T06:53:27;7.10;99.90
16625;DHT22;8426;48.496;9.098;2023-04-15T06:58:32;8.40;99.90
16625;DHT22;8426;48.496;9.098;2023-04-15T07:03:37;8.70;99.90
16625;DHT22;8426;48.496;9.098;2023-04-15T07:08:42;10.20;99.90
16625;DHT22;8426;48.496;9.098;2023-04-15T07:13:46;13.00;99.90
16625;DHT22;8426;48.496;9.098;2023-04-15T07:18:51;15.10;99.90
16625;DHT22;8426;48.496;9.098;2023-04-15T07:23:54;17.60;99.90
16625;DHT22;8426;48.496;9.098;2023-04-15T07:28:58;19.40;96.60
16625;DHT22;8426;48.496;9.098;2023-04-15T07:34:03;19.30;94.50
16625;DHT22;8426;48.496;9.098;2023-04-15T07:39:07;19.70;94.70
16625;DHT22;8426;48.496;9.098;2023-04-15T07:44:11;18.90;94.30
16625;DHT22;8426;48.496;9.098;2023-04-15T07:49:16;17.90;95.20
16625;DHT22;8426;48.496;9.098;2023-04-15T07:54:20;17.50;96.20
16625;DHT22;8426;48.496;9.098;2023-04-15T07:59:24;17.90;96.80
16625;DHT22;8426;48.496;9.098;2023-04-15T08:04:30;19.10;95.70
16625;DHT22;8426;48.496;9.098;2023-04-15T08:09:35;18.90;95.40
16625;DHT22;8426;48.496;9.098;2023-04-15T08:14:39;18.20;96.50
16625;DHT22;8426;48.496;9.098;2023-04-15T08:19:44;16.90;96.10
16625;DHT22;8426;48.496;9.098;2023-04-15T08:24:49;16.70;96.10
16625;DHT22;8426;48.496;9.098;2023-04-15T08:29:54;15.20;97.70
16625;DHT22;8426;48.496;9.098;2023-04-15T08:34:59;15.10;98.90
16625;DHT22;8426;48.496;9.098;2023-04-15T08:40:05;14.90;99.20
16625;DHT22;8426;48.496;9.098;2023-04-15T08:45:12;14.90;99.70
16625;DHT22;8426;48.496;9.098;2023-04-15T08:50:18;14.70;99.00
16625;DHT22;8426;48.496;9.098;2023-04-15T08:55:24;15.80;98.30
16625;DHT22;8426;48.496;9.098;2023-04-15T09:00:28;15.80;98.00
16625;DHT22;8426;48.496;9.098;2023-04-15T09:05:35;15.20;98.90
16625;DHT22;8426;48.496;9.098;2023-04-15T09:10:39;14.60;99.90
16625;DHT22;8426;48.496;9.098;2023-04-15T09:15:44;14.40;99.90
16625;DHT22;8426;48.496;9.098;2023-04-15T09:20:52;14.40;99.70
16625;DHT22;8426;48.496;9.098;2023-04-15T09:25:57;14.70;99.90
16625;DHT22;8426;48.496;9.098;2023-04-15T09:31:01;14.60;99.90
16625;DHT22;8426;48.496;9.098;2023-04-15T09:36:06;15.20;99.90
16625;DHT22;8426;48.496;9.098;2023-04-15T09:41:16;16.70;97.30
16625;DHT22;8426;48.496;9.098;2023-04-15T09:46:39;16.30;98.20
16625;DHT22;8426;48.496;9.098;2023-04-15T09:51:45;15.60;98.70
16625;DHT22;8426;48.496;9.098;2023-04-15T09:57:06;14.80;99.90
16625;DHT22;8426;48.496;9.098;2023-04-15T10:02:11;14.60;99.80
16625;DHT22;8426;48.496;9.098;2023-04-15T10:07:17;14.70;99.90
16625;DHT22;8426;48.496;9.098;2023-04-15T10:12:23;15.20;99.00
16625;DHT22;8426;48.496;9.098;2023-04-15T10:17:27;15.80;98.10
16625;DHT22;8426;48.496;9.098;2023-04-15T10:22:37;15.90;98.70
16625;DHT22;8426;48.496;9.098;2023-04-15T10:27:40;16.00;99.60
16625;DHT22;8426;48.496;9.098;2023-04-15T10:32:45;16.30;96.80
16625;DHT22;8426;48.496;9.098;2023-04-15T10:37:50;16.40;96.80
16625;DHT22;8426;48.496;9.098;2023-04-15T10:42:58;16.60;94.60
16625;DHT22;8426;48.496;9.098;2023-04-15T10:48:05;16.70;95.80
16625;DHT22;8426;48.496;9.098;2023-04-15T10:53:10;16.60;97.40
16625;DHT22;8426;48.496;9.098;2023-04-15T10:58:14;16.40;94.50
16625;DHT22;8426;48.496;9.098;2023-04-15T11:03:35;16.40;95.50
16625;DHT22;8426;48.496;9.098;2023-04-15T11:08:55;16.50;96.40
16625;DHT22;8426;48.496;9.098;2023-04-15T11:14:01;16.50;97.40
16625;DHT22;8426;48.496;9.098;2023-04-15T11:19:05;16.40;94.80
16625;DHT22;8426;48.496;9.098;2023-04-15T11:24:10;16.10;94.50
16625;DHT22;8426;48.496;9.098;2023-04-15T11:29:17;16.20;95.10
16625;DHT22;8426;48.496;9.098;2023-04-15T11:34:22;16.00;97.00
16625;DHT22;8426;48.496;9.098;2023-04-15T11:39:28;16.10;94.90
16625;DHT22;8426;48.496;9.098;2023-04-15T11:44:41;16.60;94.30
16625;DHT22;8426;48.496;9.098;2023-04-15T11:49:45;16.40;94.30
16625;DHT22;8426;48.496;9.098;2023-04-15T11:54:50;16.10;93.80
16625;DHT22;8426;48.496;9.098;2023-04-15T11:59:54;15.90;95.70
16625;DHT22;8426;48.496;9.098;2023-04-15T12:05:05;15.90;94.10
16625;DHT22;8426;48.496;9.098;2023-04-15T12:10:12;15.30;93.40
16625;DHT22;8426;48.496;9.098;2023-04-15T12:15:18;14.80;94.80
16625;DHT22;8426;48.496;9.098;2023-04-15T12:20:25;14.30;96.80
16625;DHT22;8426;48.496;9.098;2023-04-15T12:25:34;14.20;98.40
16625;DHT22;8426;48.496;9.098;2023-04-15T12:30:48;15.10;95.20
16625;DHT22;8426;48.496;9.098;2023-04-15T12:35:52;15.20;96.10
16625;DHT22;8426;48.496;9.098;2023-04-15T12:40:58;15.20;95.40
16625;DHT22;8426;48.496;9.098;2023-04-15T12:46:02;14.90;95.70
16625;DHT22;8426;48.496;9.098;2023-04-15T12:51:05;15.10;95.90
16625;DHT22;8426;48.496;9.098;2023-04-15T12:56:10;15.00;96.70
16625;DHT22;8426;48.496;9.098;2023-04-15T13:01:15;15.50;96.30
16625;DHT22;8426;48.496;9.098;2023-04-15T13:06:22;15.30;94.70
16625;DHT22;8426;48.496;9.098;2023-04-15T13:11:35;15.70;94.20
16625;DHT22;8426;48.496;9.098;2023-04-15T13:16:40;15.90;94.80
16625;DHT22;8426;48.496;9.098;2023-04-15T13:21:43;16.40;94.80
16625;DHT22;8426;48.496;9.098;2023-04-15T13:26:48;15.90;95.10
16625;DHT22;8426;48.496;9.098;2023-04-15T13:31:52;15.60;94.40
16625;DHT22;8426;48.496;9.098;2023-04-15T13:36:56;15.50;94.20
16625;DHT22;8426;48.496;9.098;2023-04-15T13:42:05;15.10;95.40
16625;DHT22;8426;48.496;9.098;2023-04-15T13:47:08;14.70;95.90
16625;DHT22;8426;48.496;9.098;2023-04-15T13:52:12;14.80;96.10
16625;DHT22;8426;48.496;9.098;2023-04-15T13:57:17;14.70;99.90
16625;DHT22;8426;48.496;9.098;2023-04-15T14:02:21;14.20;99.90
16625;DHT22;8426;48.496;9.098;2023-04-15T14:07:28;14.30;99.80
16625;DHT22;8426;48.496;9.098;2023-04-15T14:12:35;13.50;99.10
16625;DHT22;8426;48.496;9.098;2023-04-15T14:17:41;13.20;99.50
16625;DHT22;8426;48.496;9.098;2023-04-15T14:22:47;12.50;99.90
16625;DHT22;8426;48.496;9.098;2023-04-15T14:27:53;12.00;99.90
16625;DHT22;8426;48.496;9.098;2023-04-15T14:32:58;11.70;99.90
16625;DHT22;8426;48.496;9.098;2023-04-15T14:38:01;11.60;99.90
16625;DHT22;8426;48.496;9.098;2023-04-15T14:43:08;11.90;99.90
16625;DHT22;8426;48.496;9.098;2023-04-15T14:48:12;11.90;99.60
16625;DHT22;8426;48.496;9.098;2023-04-15T14:53:16;11.70;99.70
16625;DHT22;8426;48.496;9.098;2023-04-15T14:58:20;11.50;99.40
16625;DHT22;8426;48.496;9.098;2023-04-15T15:03:24;11.40;98.80
16625;DHT22;8426;48.496;9.098;2023-04-15T15:08:28;11.30;98.40
16625;DHT22;8426;48.496;9.098;2023-04-15T15:13:32;11.20;97.10
16625;DHT22;8426;48.496;9.098;2023-04-15T15:18:36;11.20;97.50
16625;DHT22;8426;48.496;9.098;2023-04-15T15:23:40;11.30;98.00
16625;DHT22;8426;48.496;9.098;2023-04-15T15:28:49;11.30;98.00
16625;DHT22;8426;48.496;9.098;2023-04-15T15:33:53;11.10;98.10
16625;DHT22;8426;48.496;9.098;2023-04-15T15:38:57;11.20;98.00
16625;DHT22;8426;48.496;9.098;2023-04-15T15:44:02;11.20;99.20
16625;DHT22;8426;48.496;9.098;2023-04-15T15:49:05;10.90;99.90
16625;DHT22;8426;48.496;9.098;2023-04-15T15:54:09;10.70;99.90
16625;DHT22;8426;48.496;9.098;2023-04-15T15:59:21;10.60;99.90
16625;DHT22;8426;48.496;9.098;2023-04-15T16:04:27;10.60;99.90
16625;DHT22;8426;48.496;9.098;2023-04-15T16:09:30;10.70;99.90
16625;DHT22;8426;48.496;9.098;2023-04-15T16:14:35;10.70;99.90
16625;DHT22;8426;48.496;9.098;2023-04-15T16:19:40;10.70;99.90
16625;DHT22;8426;48.496;9.098;2023-04-15T16:25:01;10.80;99.90
16625;DHT22;8426;48.496;9.098;2023-04-15T16:30:08;10.80;99.90
16625;DHT22;8426;48.496;9.098;2023-04-15T16:35:14;10.90;99.90
16625;DHT22;8426;48.496;9.098;2023-04-15T16:40:18;10.80;99.90
16625;DHT22;8426;48.496;9.098;2023-04-15T16:45:47;10.70;99.90
16625;DHT22;8426;48.496;9.098;2023-04-15T16:50:56;10.60;99.90
16625;DHT22;8426;48.496;9.098;2023-04-15T16:56:00;10.40;99.90
16625;DHT22;8426;48.496;9.098;2023-04-15T17:01:05;10.20;99.90
16625;DHT22;8426;48.496;9.098;2023-04-15T17:06:08;10.20;99.90
16625;DHT22;8426;48.496;9.098;2023-04-15T17:11:12;10.00;99.90
16625;DHT22;8426;48.496;9.098;2023-04-15T17:16:17;9.80;99.90
16625;DHT22;8426;48.496;9.098;2023-04-15T17:21:21;9.80;99.90
16625;DHT22;8426;48.496;9.098;2023-04-15T17:26:25;9.70;99.90
16625;DHT22;8426;48.496;9.098;2023-04-15T17:31:30;9.40;99.90
16625;DHT22;8426;48.496;9.098;2023-04-15T17:36:34;9.20;99.90
16625;DHT22;8426;48.496;9.098;2023-04-15T17:41:37;9.10;99.90
16625;DHT22;8426;48.496;9.098;2023-04-15T17:46:42;8.80;99.90
16625;DHT22;8426;48.496;9.098;2023-04-15T17:51:46;8.70;99.90
16625;DHT22;8426;48.496;9.098;2023-04-15T17:56:50;8.50;99.90
16625;DHT22;8426;48.496;9.098;2023-04-15T18:01:56;8.40;99.90
16625;DHT22;8426;48.496;9.098;2023-04-15T18:07:00;8.20;99.90
16625;DHT22;8426;48.496;9.098;2023-04-15T18:12:06;8.10;99.90
16625;DHT22;8426;48.496;9.098;2023-04-15T18:17:12;8.00;99.90
16625;DHT22;8426;48.496;9.098;2023-04-15T18:22:19;7.90;99.90
16625;DHT22;8426;48.496;9.098;2023-04-15T18:27:22;7.90;99.90
16625;DHT22;8426;48.496;9.098;2023-04-15T18:32:27;7.70;99.90
16625;DHT22;8426;48.496;9.098;2023-04-15T18:37:34;7.70;99.90
16625;DHT22;8426;48.496;9.098;2023-04-15T18:42:38;7.60;99.90
16625;DHT22;8426;48.496;9.098;2023-04-15T18:47:43;7.50;99.90
16625;DHT22;8426;48.496;9.098;2023-04-15T18:52:47;7.50;99.90
16625;DHT22;8426;48.496;9.098;2023-04-15T18:57:50;7.40;99.90
16625;DHT22;8426;48.496;9.098;2023-04-15T19:02:58;7.40;99.90
16625;DHT22;8426;48.496;9.098;2023-04-15T19:08:03;7.40;99.90
16625;DHT22;8426;48.496;9.098;2023-04-15T19:13:06;7.30;99.90
16625;DHT22;8426;48.496;9.098;2023-04-15T19:18:11;7.40;99.90
16625;DHT22;8426;48.496;9.098;2023-04-15T19:23:14;7.30;99.90
16625;DHT22;8426;48.496;9.098;2023-04-15T19:28:18;7.30;99.90
16625;DHT22;8426;48.496;9.098;2023-04-15T19:33:24;7.20;99.90
16625;DHT22;8426;48.496;9.098;2023-04-15T19:38:32;7.20;99.90
16625;DHT22;8426;48.496;9.098;2023-04-15T19:43:38;7.20;99.90
16625;DHT22;8426;48.496;9.098;2023-04-15T19:48:43;7.20;99.90
16625;DHT22;8426;48.496;9.098;2023-04-15T19:53:47;7.20;99.90
16625;DHT22;8426;48.496;9.098;2023-04-15T19:58:51;7.20;99.90
16625;DHT22;8426;48.496;9.098;2023-04-15T20:03:56;7.20;99.90
16625;DHT22;8426;48.496;9.098;2023-04-15T20:09:01;7.10;99.90
16625;DHT22;8426;48.496;9.098;2023-04-15T20:14:05;7.10;99.90
16625;DHT22;8426;48.496;9.098;2023-04-15T20:19:09;7.10;99.90
16625;DHT22;8426;48.496;9.098;2023-04-15T20:24:31;7.00;99.90
16625;DHT22;8426;48.496;9.098;2023-04-15T20:29:37;7.00;99.90
16625;DHT22;8426;48.496;9.098;2023-04-15T20:34:42;7.00;99.90
16625;DHT22;8426;48.496;9.098;2023-04-15T20:39:48;7.00;99.90
16625;DHT22;8426;48.496;9.098;2023-04-15T20:44:52;6.90;99.90
16625;DHT22;8426;48.496;9.098;2023-04-15T20:49:56;6.90;99.90
16625;DHT22;8426;48.496;9.098;2023-04-15T20:55:00;6.80;99.90
16625;DHT22;8426;48.496;9.098;2023-04-15T21:00:05;6.80;99.90
16625;DHT22;8426;48.496;9.098;2023-04-15T21:05:11;6.80;99.90
16625;DHT22;8426;48.496;9.098;2023-04-15T21:10:15;6.80;99.90
16625;DHT22;8426;48.496;9.098;2023-04-15T21:15:18;6.80;99.90
16625;DHT22;8426;48.496;9.098;2023-04-15T21:20:29;6.70;99.90
16625;DHT22;8426;48.496;9.098;2023-04-15T21:25:33;6.80;99.90
16625;DHT22;8426;48.496;9.098;2023-04-15T21:30:36;6.80;99.90
16625;DHT22;8426;48.496;9.098;2023-04-15T21:35:41;6.70;99.90
16625;DHT22;8426;48.496;9.098;2023-04-15T21:40:45;6.70;99.90
16625;DHT22;8426;48.496;9.098;2023-04-15T21:45:49;6.70;99.90
16625;DHT22;8426;48.496;9.098;2023-04-15T21:51:14;6.70;99.90
16625;DHT22;8426;48.496;9.098;2023-04-15T21:56:17;6.70;99.90
16625;DHT22;8426;48.496;9.098;2023-04-15T22:01:25;6.70;99.90
16625;DHT22;8426;48.496;9.098;2023-04-15T22:06:30;6.70;99.90
16625;DHT22;8426;48.496;9.098;2023-04-15T22:11:34;6.70;99.90
16625;DHT22;8426;48.496;9.098;2023-04-15T22:16:37;6.70;99.90
16625;DHT22;8426;48.496;9.098;2023-04-15T22:21:42;6.70;99.90
16625;DHT22;8426;48.496;9.098;2023-04-15T22:26:46;6.70;99.90
16625;DHT22;8426;48.496;9.098;2023-04-15T22:31:49;6.60;99.90
16625;DHT22;8426;48.496;9.098;2023-04-15T22:36:54;6.70;99.90
16625;DHT22;8426;48.496;9.098;2023-04-15T22:41:57;6.70;99.90
16625;DHT22;8426;48.496;9.098;2023-04-15T22:47:02;6.70;99.90
16625;DHT22;8426;48.496;9.098;2023-04-15T22:52:06;6.60;99.90
16625;DHT22;8426;48.496;9.098;2023-04-15T22:57:18;6.70;99.90
16625;DHT22;8426;48.496;9.098;2023-04-15T23:02:21;6.70;99.90
16625;DHT22;8426;48.496;9.098;2023-04-15T23:07:26;6.70;99.90
16625;DHT22;8426;48.496;9.098;2023-04-15T23:12:30;6.70;99.90
16625;DHT22;8426;48.496;9.098;2023-04-15T23:17:33;6.70;99.90
16625;DHT22;8426;48.496;9.098;2023-04-15T23:22:38;6.70;99.90
16625;DHT22;8426;48.496;9.098;2023-04-15T23:27:43;6.70;99.90
16625;DHT22;8426;48.496;9.098;2023-04-15T23:32:46;6.70;99.90
16625;DHT22;8426;48.496;9.098;2023-04-15T23:37:51;6.70;99.90
16625;DHT22;8426;48.496;9.098;2023-04-15T23:42:55;6.70;99.90
16625;DHT22;8426;48.496;9.098;2023-04-15T23:47:59;6.70;99.90
16625;DHT22;8426;48.496;9.098;2023-04-15T23:53:05;6.70;99.90
16625;DHT22;8426;48.496;9.098;2023-04-15T23:58:08;6.70;99.90
